Terminal Aerodrome Forecast
Issued by NWS

Home | Current Version | Previous Version | Graphics & Text | Print | Product List | Glossary On
Versions: 1 2 3 4 5 6 7 8 9 10 11 12 13 14 15 16 17 18 19 20 21 22 23 24 25 26 27 28 29 30 31 32 33 34 35 36 37 38 39 40 41 42 43 44
079
FTUS43 KGRB 181131
TAFRHI
TAF
KRHI 181131Z 1812/1912 23007KT 1 1/2SM BR BKN005
      TEMPO 1812/1814 1/2SM FG VV002
     FM181500 23009KT 3SM BR SCT003 OVC006
     FM181700 23009KT P6SM SCT006
     FM190000 22008KT P6SM SCT150
     FM190600 23006KT 4SM BR SCT070 SCT150
     FM190800 23003KT 2SM BR SCT002 BKN070=

USA.gov is the U.S. government's official web portal to all federal, state and local government web resources and services.